createdAt,value
2023-02-09T00:02:37.508Z,7.33
2023-02-09T00:07:39.238Z,8.33
2023-02-09T00:12:42.993Z,7.20
2023-02-09T00:17:45.173Z,7.47
2023-02-09T00:22:47.603Z,6.90
2023-02-09T00:27:51.130Z,6.70
2023-02-09T00:32:53.468Z,7.10
2023-02-09T00:37:55.815Z,6.60
2023-02-09T00:42:59.300Z,5.33
2023-02-09T00:48:02.555Z,6.57
2023-02-09T00:53:04.782Z,7.60
2023-02-09T00:58:08.412Z,7.87
2023-02-09T01:03:11.488Z,7.40
2023-02-09T01:08:13.572Z,7.27
2023-02-09T01:13:17.712Z,5.97
2023-02-09T01:18:19.819Z,6.60
2023-02-09T01:23:21.983Z,6.43
2023-02-09T01:28:26.564Z,6.37
2023-02-09T01:33:29.326Z,6.90
2023-02-09T01:38:31.499Z,6.83
2023-02-09T01:43:57.495Z,7.00
2023-02-09T01:49:05.440Z,6.60
2023-02-09T01:54:12.356Z,6.40
2023-02-09T01:59:17.033Z,7.07
2023-02-09T02:04:19.946Z,6.37
2023-02-09T02:09:22.204Z,5.83
2023-02-09T02:14:36.952Z,6.70
2023-02-09T02:20:08.110Z,6.43
2023-02-09T02:25:56.967Z,6.03
2023-02-09T02:31:26.646Z,5.90
2023-02-09T02:36:39.586Z,6.23
2023-02-09T02:41:51.865Z,7.00
2023-02-09T02:46:59.892Z,6.03
2023-02-09T02:52:31.601Z,6.63
2023-02-09T02:57:37.137Z,6.07
2023-02-09T03:02:43.779Z,5.50
2023-02-09T03:07:47.111Z,6.73
2023-02-09T03:12:57.774Z,6.47
2023-02-09T03:18:06.642Z,6.67
2023-02-09T03:23:18.166Z,5.80
2023-02-09T03:28:25.814Z,5.37
2023-02-09T03:33:32.170Z,5.83
2023-02-09T03:38:35.646Z,7.30
2023-02-09T03:43:38.085Z,5.53
2023-02-09T03:48:39.815Z,5.03
2023-02-09T03:53:43.196Z,5.50
2023-02-09T03:58:45.763Z,5.37
2023-02-09T04:03:48.314Z,5.53
2023-02-09T04:08:51.693Z,5.20
2023-02-09T04:13:53.913Z,4.33
2023-02-09T04:18:56.447Z,5.93
2023-02-09T04:24:00.001Z,5.27
2023-02-09T04:29:02.456Z,5.60
2023-02-09T04:34:04.416Z,5.07
2023-02-09T04:39:07.967Z,5.33
2023-02-09T04:44:10.125Z,5.17
2023-02-09T04:49:12.364Z,5.83
2023-02-09T04:54:16.310Z,5.23
2023-02-09T04:59:19.056Z,5.53
2023-02-09T05:04:21.220Z,6.73
2023-02-09T05:09:24.868Z,6.10
2023-02-09T05:14:27.633Z,5.83
2023-02-09T05:19:29.882Z,6.03
2023-02-09T05:24:33.462Z,7.10
2023-02-09T05:29:35.642Z,5.93
2023-02-09T05:34:37.424Z,6.23
2023-02-09T05:39:40.826Z,7.07
2023-02-09T05:44:43.062Z,6.67
2023-02-09T05:49:45.892Z,7.53
2023-02-09T05:54:49.820Z,6.73
2023-02-09T05:59:51.904Z,6.83
2023-02-09T06:04:53.980Z,7.37
2023-02-09T06:09:57.455Z,7.30
2023-02-09T06:14:59.366Z,7.13
2023-02-09T06:20:01.804Z,6.93
2023-02-09T06:25:05.782Z,7.03
2023-02-09T06:30:09.290Z,7.03
2023-02-09T06:35:11.410Z,7.13
2023-02-09T06:40:14.969Z,6.77
2023-02-09T06:45:17.452Z,7.37
2023-02-09T06:50:19.700Z,5.97
2023-02-09T06:55:23.666Z,6.60
2023-02-09T07:00:26.074Z,5.43
2023-02-09T07:05:28.306Z,6.40
2023-02-09T07:10:31.420Z,6.80
2023-02-09T07:15:33.627Z,7.67
2023-02-09T07:20:35.854Z,6.17
2023-02-09T07:25:39.038Z,6.40
2023-02-09T07:30:41.178Z,7.67
2023-02-09T07:35:42.999Z,6.40
2023-02-09T07:40:46.641Z,7.63
2023-02-09T07:45:48.723Z,6.80
2023-02-09T07:50:51.612Z,7.80
2023-02-09T07:55:55.037Z,6.90
2023-02-09T08:01:03.595Z,6.57
2023-02-09T08:06:13.853Z,7.23
2023-02-09T08:11:20.744Z,7.87
2023-02-09T08:16:27.531Z,6.70
2023-02-09T08:21:33.959Z,7.00
2023-02-09T08:26:37.631Z,8.37
2023-02-09T08:31:39.901Z,7.03
2023-02-09T08:36:41.937Z,6.13
2023-02-09T08:41:46.385Z,6.40
2023-02-09T08:46:48.466Z,7.30
2023-02-09T08:51:50.827Z,7.90
2023-02-09T08:56:54.549Z,7.13
2023-02-09T09:01:56.485Z,6.60
2023-02-09T09:06:58.944Z,7.40
2023-02-09T09:12:02.264Z,7.13
2023-02-09T09:17:05.198Z,6.70
2023-02-09T09:22:07.580Z,7.13
2023-02-09T09:27:10.859Z,5.57
2023-02-09T09:32:13.482Z,6.07
2023-02-09T09:37:16.025Z,5.90
2023-02-09T09:42:37.451Z,5.87
2023-02-09T09:47:41.324Z,5.40
2023-02-09T09:52:46.598Z,5.27
2023-02-09T09:58:01.701Z,5.93
2023-02-09T10:03:04.775Z,5.10
2023-02-09T10:08:15.256Z,4.57
2023-02-09T10:13:24.631Z,4.10
2023-02-09T10:18:28.924Z,4.40
2023-02-09T10:23:38.813Z,5.03
2023-02-09T10:28:44.491Z,5.17
2023-02-09T10:33:52.610Z,4.93
2023-02-09T10:39:04.362Z,4.87
2023-02-09T10:44:14.289Z,4.33
2023-02-09T10:49:28.756Z,5.17
2023-02-09T10:54:31.718Z,4.10
2023-02-09T10:59:53.979Z,4.43
2023-02-09T11:04:56.310Z,4.67
2023-02-09T11:09:58.940Z,4.53
2023-02-09T11:15:02.565Z,4.73
2023-02-09T11:20:21.802Z,4.50
2023-02-09T11:25:27.808Z,4.97
2023-02-09T11:30:54.859Z,4.20
2023-02-09T11:36:23.975Z,4.33
2023-02-09T11:41:51.970Z,4.60
2023-02-09T11:47:02.784Z,4.60
2023-02-09T11:52:08.046Z,4.30
2023-02-09T11:57:19.259Z,4.63
2023-02-09T12:02:37.860Z,4.17
2023-02-09T12:07:46.909Z,4.63
2023-02-09T12:12:52.075Z,4.63
2023-02-09T12:18:00.698Z,4.37
2023-02-09T12:23:05.160Z,4.37
2023-02-09T12:28:14.637Z,4.70
2023-02-09T12:33:20.023Z,4.80
2023-02-09T12:38:22.007Z,5.33
2023-02-09T12:43:29.865Z,5.33
2023-02-09T12:48:33.046Z,4.43
2023-02-09T12:53:46.067Z,4.13
2023-02-09T12:58:56.244Z,5.33
2023-02-09T13:04:03.527Z,4.53
2023-02-09T13:09:18.023Z,4.77
2023-02-09T13:14:20.953Z,4.00
2023-02-09T13:19:51.634Z,3.87
2023-02-09T13:24:58.709Z,4.40
2023-02-09T13:30:01.238Z,3.93
2023-02-09T13:35:15.493Z,4.17
2023-02-09T13:40:22.608Z,4.60
2023-02-09T13:45:26.366Z,3.90
2023-02-09T13:50:30.589Z,3.87
2023-02-09T13:55:33.092Z,4.20
2023-02-09T14:00:40.523Z,4.10
2023-02-09T14:05:49.569Z,4.27
2023-02-09T14:10:55.511Z,4.53
2023-02-09T14:16:01.040Z,3.90
2023-02-09T14:21:45.137Z,3.80
2023-02-09T14:26:52.973Z,4.00
2023-02-09T14:31:57.218Z,4.50
2023-02-09T14:37:02.955Z,4.00
2023-02-09T14:42:17.777Z,4.17
2023-02-09T14:47:39.540Z,3.77
2023-02-09T14:52:47.718Z,4.00
2023-02-09T14:57:49.905Z,3.60
2023-02-09T15:02:58.553Z,4.10
2023-02-09T15:08:05.851Z,3.97
2023-02-09T15:13:11.261Z,3.77
2023-02-09T15:18:18.207Z,4.00
2023-02-09T15:23:21.896Z,4.03
2023-02-09T15:28:26.817Z,10.40
2023-02-09T15:33:29.760Z,4.60
2023-02-09T15:38:33.539Z,3.63
2023-02-09T15:43:36.013Z,3.93
2023-02-09T15:48:38.217Z,3.53
2023-02-09T15:53:42.871Z,4.20
2023-02-09T15:58:46.015Z,4.53
2023-02-09T16:03:48.677Z,3.20
2023-02-09T16:08:53.711Z,3.90
2023-02-09T16:13:55.906Z,3.50
2023-02-09T16:18:57.659Z,3.73
2023-02-09T16:24:02.994Z,4.07
2023-02-09T16:29:06.481Z,3.50
2023-02-09T16:34:14.659Z,4.00
2023-02-09T16:44:52.325Z,3.90
2023-02-09T16:50:00.752Z,4.00
2023-02-09T16:55:06.971Z,4.37
2023-02-09T17:00:11.193Z,3.73
2023-02-09T17:05:19.366Z,3.93
2023-02-09T17:10:25.374Z,4.20
2023-02-09T17:15:31.700Z,4.47
2023-02-09T17:31:53.929Z,4.40
2023-02-09T17:36:57.306Z,4.70
2023-02-09T17:42:00.506Z,4.77
2023-02-09T17:47:02.714Z,5.10
2023-02-09T17:52:04.932Z,4.63
2023-02-09T17:57:09.440Z,4.80
2023-02-09T18:02:14.975Z,4.97
2023-02-09T18:07:20.853Z,4.50
2023-02-09T18:18:05.812Z,5.27
2023-02-09T18:23:20.433Z,5.07
2023-02-09T18:28:26.888Z,4.50
2023-02-09T18:33:31.756Z,3.87
2023-02-09T18:38:42.743Z,4.87
2023-02-09T18:43:54.170Z,6.47
2023-02-09T18:48:56.201Z,8.10
2023-02-09T18:53:58.431Z,7.53
2023-02-09T18:59:09.656Z,7.50
2023-02-09T19:04:12.928Z,4.90
2023-02-09T19:09:16.008Z,4.70
2023-02-09T19:14:19.233Z,4.80
2023-02-09T19:19:21.380Z,4.37
2023-02-09T19:24:40.979Z,4.60
2023-02-09T19:29:45.636Z,6.13
2023-02-09T19:34:48.616Z,6.23
2023-02-09T19:39:54.567Z,5.83
2023-02-09T19:44:57.974Z,4.73
2023-02-09T19:50:07.996Z,5.13
2023-02-09T19:55:11.688Z,6.03
2023-02-09T20:00:21.941Z,5.37
2023-02-09T20:05:24.928Z,4.87
2023-02-09T20:10:26.872Z,4.97
2023-02-09T20:15:45.308Z,5.73
2023-02-09T20:20:48.441Z,5.50
2023-02-09T20:26:09.296Z,4.90
2023-02-09T20:31:15.021Z,6.27
2023-02-09T20:36:17.990Z,5.33
2023-02-09T20:41:20.220Z,5.40
2023-02-09T20:46:27.200Z,5.00
2023-02-09T20:51:32.182Z,5.60
2023-02-09T20:56:34.578Z,5.23
2023-02-09T21:01:38.776Z,4.80
2023-02-09T21:06:40.964Z,5.97
2023-02-09T21:11:44.117Z,5.67
2023-02-09T21:16:47.350Z,5.40
2023-02-09T21:21:49.451Z,5.67
2023-02-09T21:26:51.672Z,6.00
2023-02-09T21:32:02.616Z,6.07
2023-02-09T21:37:04.691Z,6.37
2023-02-09T21:42:07.167Z,5.83
2023-02-09T21:47:12.524Z,5.13
2023-02-09T21:52:15.165Z,6.30
2023-02-09T21:57:17.339Z,6.43
2023-02-09T22:02:20.851Z,5.93
2023-02-09T22:07:22.829Z,7.40
2023-02-09T22:12:24.943Z,7.03
2023-02-09T22:17:28.407Z,6.30
2023-02-09T22:22:30.502Z,5.93
2023-02-09T22:27:32.220Z,6.43
2023-02-09T22:32:35.701Z,5.93
2023-02-09T22:37:37.898Z,5.77
2023-02-09T22:42:40.315Z,5.63
2023-02-09T22:47:43.474Z,5.47
2023-02-09T22:52:45.478Z,5.93
2023-02-09T22:57:47.657Z,5.73
2023-02-09T23:02:51.113Z,6.57
2023-02-09T23:07:53.312Z,5.33
2023-02-09T23:12:55.366Z,5.50
2023-02-09T23:17:58.872Z,7.10
2023-02-09T23:23:01.020Z,5.33
2023-02-09T23:28:03.274Z,6.17
2023-02-09T23:33:06.639Z,5.63
2023-02-09T23:38:09.292Z,5.50
2023-02-09T23:43:11.713Z,5.90
2023-02-09T23:48:15.010Z,5.60
2023-02-09T23:53:17.175Z,6.03
2023-02-09T23:58:19.232Z,6.50
